In Rescue
 
Open Full Screen Window  High Contrast Mode
Wind Gusting 00 knots
10
May 20, 2019 1:30 PM CDT
Weather Information
Wind Direction
  040 °
Wind Speed
  10 kt (12 mph)
Wind Gust
  00 kt (0 mph)
Altimeter
30.14 in
Visibility
10 SM
Temperature
13° C
55° F
Dewpoint
03° C
37° F
Humidity
51%
1hr Rain Fall
00.00 in.
24hr Rain Fall
00.00 in.
Sky Condition
Clear
VFR

METAR KAEL 201830Z AUTO 04010KT 10SM CLR 13/03 A3014 RMK AO2

FAA Disclaimer: The data displayed is for advisory purposes only and is not to be used for flight planning or operations.